Terminal Aerodrome Forecast
Issued by NWS

Home | Current Version | Previous Version | Text Only | Print | Product List | Glossary On
Versions: 1 2 3 4 5 6 7 8 9 10 11 12 13 14 15 16 17 18
000
FTUS41 KBGM 120540
TAFELM
TAF
KELM 120540Z 1206/1306 16006KT P6SM OVC040
      TEMPO 1207/1210 2SM -SN OVC020
     FM121000 19008KT P6SM -SN OVC020
      TEMPO 1210/1213 2SM -SN OVC015
     FM121600 26009G17KT P6SM OVC020
     FM122100 28013G26KT P6SM -SN OVC030
     FM130000 28013G24KT P6SM -SN BKN040=

USA.gov is the U.S. government's official web portal to all federal, state and local government web resources and services.